Airfield :
LOGIN :

Register | Disclaimer

   EN    FR    IT 

 










Legend :    VFR   Marginal VFR   IFR   Intensive IFR   Very Intensive IFR
Visi :
Ceiling :
>= 8 km
>= 3000ft
5 to 8 km
1000 to 3000 ft
1500m to 5 km
500 to 1000 ft
800 to 1500m
200 to 500 ft
< 800m
< 200 ft
Symbols :   Thunderstorms  Fog  Heavy snow  Heavy precipitations  Wind > 20 kt
SIGMETs :     Misc.  Thunderstorms  Icing  Turbulence  Mountain Waves  Volcanic Ashes







- Airport Elevation : 796 ft
- IATA code : SYT
- Download approach charts


LFLN - Saint-Yan

CURRENT METAR :
  • 251430Z AUTO 26004KT 220V290 9999 -RA SCT006 SCT017 BKN047 16/15 Q1019 TEMPO 3500 SHRA BKN006 SCT015TCU OVC060

EXPIRED METARs :
  • 251400Z AUTO 26004KT 220V290 9999 RA BKN007/// BKN026/// BKN054/// ///TCU 16/15 Q1019 TEMPO 4000 SHRA
  • 251330Z AUTO 25004KT 220V280 9999 -RA BKN009/// OVC016/// ///TCU 16/15 Q1019 TEMPO 4000 SHRA
  • 251300Z AUTO 26005KT 9999 RA BKN009/// OVC076/// ///TCU 16/14 Q1019 TEMPO 4000 SHRA
  • 251230Z AUTO 26007KT 9999 4900 RA FEW008/// OVC066/// ///TCU 16/14 Q1019 TEMPO 4000 SHRA BKN008 SCT015TCU OVC060
  • 251200Z AUTO 27007KT 240V310 9999 OVC017/// ///TCU 17/13 Q1019 TEMPO 4000 SHRA SCT024 OVC100

TAF TAF LFLN
Valid from the 25 at 15:00 until the 26 at 00:00 UTC


251400Z 2515/2524 30008KT 9999 BKN012 OVC100
TEMPO 2515/2519 3500 SHRA BKN006 SCT015TCU OVC060
No reported NOTAMs for that airfield.
1 SIGMET reported for the Marseille FIR (LFMM) :
 
Embedded thunderstorms
LFMM SIGMET 4 VALID 251300/251500 LFPW
LFMM MARSEILLE FIR/UIR EMBD TS OBS WI N4215 E00315 - N4215 E00230 - N4300 E00230 - N4300 E00300 TOP FL350 MOV E 10KT NC=



MET'MAP, your aeronautical weather chart ! - Copyright ORBIFLY December 2007 - Disclaimer

ORBIFLY MET'MAP TEAM :

Programming & Development : Alexandra Zaïnal
Concept & Development : Baudouin d'Aumeries
Co-Development & Prog : Marc-Olivier Méhu
Technical & hardware support : Manuel Goepfert

Contact : metmap@orbifly.com




SOURCES & CREDITS :

   NOAA